sensor_id;sensor_type;location;lat;lon;timestamp;pressure;altitude;pressure_sealevel;temperature
15079;BMP180;6932;51.438;5.470;2024-01-30T00:02:23;102186.00;;;15.10
15079;BMP180;6932;51.438;5.470;2024-01-30T00:04:49;102184.00;;;15.10
15079;BMP180;6932;51.438;5.470;2024-01-30T00:07:15;102185.00;;;15.10
15079;BMP180;6932;51.438;5.470;2024-01-30T00:09:40;102189.00;;;15.10
15079;BMP180;6932;51.438;5.470;2024-01-30T00:12:06;102183.00;;;15.10
15079;BMP180;6932;51.438;5.470;2024-01-30T00:14:32;102191.00;;;15.10
15079;BMP180;6932;51.438;5.470;2024-01-30T00:16:58;102189.00;;;15.00
15079;BMP180;6932;51.438;5.470;2024-01-30T00:19:24;102194.00;;;15.10
15079;BMP180;6932;51.438;5.470;2024-01-30T00:21:50;102189.00;;;15.00
15079;BMP180;6932;51.438;5.470;2024-01-30T00:24:15;102181.00;;;15.00
15079;BMP180;6932;51.438;5.470;2024-01-30T00:26:41;102182.00;;;15.00
15079;BMP180;6932;51.438;5.470;2024-01-30T00:29:07;102182.00;;;15.00
15079;BMP180;6932;51.438;5.470;2024-01-30T00:31:32;102184.00;;;15.00
15079;BMP180;6932;51.438;5.470;2024-01-30T00:33:58;102184.00;;;15.00
15079;BMP180;6932;51.438;5.470;2024-01-30T00:36:24;102183.00;;;14.90
15079;BMP180;6932;51.438;5.470;2024-01-30T00:38:50;102177.00;;;14.90
15079;BMP180;6932;51.438;5.470;2024-01-30T00:41:18;102177.00;;;14.90
15079;BMP180;6932;51.438;5.470;2024-01-30T00:43:44;102174.00;;;14.90
15079;BMP180;6932;51.438;5.470;2024-01-30T00:46:10;102171.00;;;14.90
15079;BMP180;6932;51.438;5.470;2024-01-30T00:48:36;102177.00;;;14.90
15079;BMP180;6932;51.438;5.470;2024-01-30T00:51:02;102181.00;;;14.90
15079;BMP180;6932;51.438;5.470;2024-01-30T00:53:27;102181.00;;;14.90
15079;BMP180;6932;51.438;5.470;2024-01-30T00:55:53;102172.00;;;14.90
15079;BMP180;6932;51.438;5.470;2024-01-30T00:58:19;102172.00;;;14.90
15079;BMP180;6932;51.438;5.470;2024-01-30T01:00:45;102165.00;;;14.90
15079;BMP180;6932;51.438;5.470;2024-01-30T01:03:10;102165.00;;;14.80
15079;BMP180;6932;51.438;5.470;2024-01-30T01:05:36;102171.00;;;14.80
15079;BMP180;6932;51.438;5.470;2024-01-30T01:08:02;102155.00;;;14.80
15079;BMP180;6932;51.438;5.470;2024-01-30T01:10:28;102158.00;;;14.80
15079;BMP180;6932;51.438;5.470;2024-01-30T01:12:54;102163.00;;;14.80
15079;BMP180;6932;51.438;5.470;2024-01-30T01:15:20;102163.00;;;14.80
15079;BMP180;6932;51.438;5.470;2024-01-30T01:17:45;102156.00;;;14.80
15079;BMP180;6932;51.438;5.470;2024-01-30T01:20:11;102154.00;;;14.80
15079;BMP180;6932;51.438;5.470;2024-01-30T01:22:37;102163.00;;;14.80
15079;BMP180;6932;51.438;5.470;2024-01-30T01:25:04;102155.00;;;14.80
15079;BMP180;6932;51.438;5.470;2024-01-30T01:27:32;102156.00;;;14.80
15079;BMP180;6932;51.438;5.470;2024-01-30T01:30:00;102159.00;;;14.80
15079;BMP180;6932;51.438;5.470;2024-01-30T01:32:26;102159.00;;;14.80
15079;BMP180;6932;51.438;5.470;2024-01-30T01:34:52;102156.00;;;14.80
15079;BMP180;6932;51.438;5.470;2024-01-30T01:37:19;102143.00;;;14.80
15079;BMP180;6932;51.438;5.470;2024-01-30T01:39:47;102150.00;;;14.80
15079;BMP180;6932;51.438;5.470;2024-01-30T01:42:13;102162.00;;;14.80
15079;BMP180;6932;51.438;5.470;2024-01-30T01:44:38;102164.00;;;14.80
15079;BMP180;6932;51.438;5.470;2024-01-30T01:47:05;102159.00;;;14.80
15079;BMP180;6932;51.438;5.470;2024-01-30T01:49:30;102151.00;;;14.90
15079;BMP180;6932;51.438;5.470;2024-01-30T01:51:57;102149.00;;;14.90
15079;BMP180;6932;51.438;5.470;2024-01-30T01:54:25;102148.00;;;14.90
15079;BMP180;6932;51.438;5.470;2024-01-30T01:56:53;102135.00;;;14.90
15079;BMP180;6932;51.438;5.470;2024-01-30T01:59:20;102147.00;;;14.90
15079;BMP180;6932;51.438;5.470;2024-01-30T02:01:46;102135.00;;;14.90
15079;BMP180;6932;51.438;5.470;2024-01-30T02:04:15;102132.00;;;14.90
15079;BMP180;6932;51.438;5.470;2024-01-30T02:06:43;102126.00;;;14.90
15079;BMP180;6932;51.438;5.470;2024-01-30T02:09:09;102133.00;;;14.90
15079;BMP180;6932;51.438;5.470;2024-01-30T02:11:34;102125.00;;;14.90
15079;BMP180;6932;51.438;5.470;2024-01-30T02:14:04;102119.00;;;14.90
15079;BMP180;6932;51.438;5.470;2024-01-30T02:16:31;102128.00;;;14.90
15079;BMP180;6932;51.438;5.470;2024-01-30T02:18:56;102138.00;;;15.00
15079;BMP180;6932;51.438;5.470;2024-01-30T02:21:22;102135.00;;;15.00
15079;BMP180;6932;51.438;5.470;2024-01-30T02:23:49;102132.00;;;15.00
15079;BMP180;6932;51.438;5.470;2024-01-30T02:26:16;102128.00;;;15.00
15079;BMP180;6932;51.438;5.470;2024-01-30T02:28:41;102131.00;;;15.00
15079;BMP180;6932;51.438;5.470;2024-01-30T02:31:07;102120.00;;;15.00
15079;BMP180;6932;51.438;5.470;2024-01-30T02:33:33;102115.00;;;15.00
15079;BMP180;6932;51.438;5.470;2024-01-30T02:35:59;102120.00;;;15.00
15079;BMP180;6932;51.438;5.470;2024-01-30T02:38:25;102125.00;;;15.00
15079;BMP180;6932;51.438;5.470;2024-01-30T02:40:52;102118.00;;;15.00
15079;BMP180;6932;51.438;5.470;2024-01-30T02:43:18;102118.00;;;15.00
15079;BMP180;6932;51.438;5.470;2024-01-30T02:45:44;102121.00;;;15.00
15079;BMP180;6932;51.438;5.470;2024-01-30T02:48:09;102122.00;;;15.00
15079;BMP180;6932;51.438;5.470;2024-01-30T02:50:35;102122.00;;;15.00
15079;BMP180;6932;51.438;5.470;2024-01-30T02:53:01;102122.00;;;15.00
15079;BMP180;6932;51.438;5.470;2024-01-30T02:55:26;102117.00;;;15.00
15079;BMP180;6932;51.438;5.470;2024-01-30T02:57:52;102117.00;;;15.00
15079;BMP180;6932;51.438;5.470;2024-01-30T03:00:19;102116.00;;;15.00
15079;BMP180;6932;51.438;5.470;2024-01-30T03:02:45;102114.00;;;15.00
15079;BMP180;6932;51.438;5.470;2024-01-30T03:05:11;102117.00;;;15.00
15079;BMP180;6932;51.438;5.470;2024-01-30T03:07:37;102117.00;;;15.00
15079;BMP180;6932;51.438;5.470;2024-01-30T03:10:05;102110.00;;;15.00
15079;BMP180;6932;51.438;5.470;2024-01-30T03:12:31;102112.00;;;15.00
15079;BMP180;6932;51.438;5.470;2024-01-30T03:14:57;102100.00;;;15.00
15079;BMP180;6932;51.438;5.470;2024-01-30T03:17:23;102098.00;;;15.00
15079;BMP180;6932;51.438;5.470;2024-01-30T03:19:50;102106.00;;;15.00
15079;BMP180;6932;51.438;5.470;2024-01-30T03:22:16;102092.00;;;15.00
15079;BMP180;6932;51.438;5.470;2024-01-30T03:24:42;102093.00;;;15.00
15079;BMP180;6932;51.438;5.470;2024-01-30T03:27:08;102089.00;;;15.00
15079;BMP180;6932;51.438;5.470;2024-01-30T03:29:34;102090.00;;;15.00
15079;BMP180;6932;51.438;5.470;2024-01-30T03:32:00;102090.00;;;15.00
15079;BMP180;6932;51.438;5.470;2024-01-30T03:34:26;102094.00;;;15.10
15079;BMP180;6932;51.438;5.470;2024-01-30T03:36:51;102101.00;;;15.10
15079;BMP180;6932;51.438;5.470;2024-01-30T03:39:17;102093.00;;;15.00
15079;BMP180;6932;51.438;5.470;2024-01-30T03:41:43;102078.00;;;15.00
15079;BMP180;6932;51.438;5.470;2024-01-30T03:44:10;102088.00;;;15.00
15079;BMP180;6932;51.438;5.470;2024-01-30T03:46:36;102094.00;;;15.00
15079;BMP180;6932;51.438;5.470;2024-01-30T03:49:02;102089.00;;;15.00
15079;BMP180;6932;51.438;5.470;2024-01-30T03:51:27;102090.00;;;15.00
15079;BMP180;6932;51.438;5.470;2024-01-30T03:53:53;102092.00;;;15.00
15079;BMP180;6932;51.438;5.470;2024-01-30T03:56:19;102098.00;;;15.00
15079;BMP180;6932;51.438;5.470;2024-01-30T03:58:45;102098.00;;;15.00
15079;BMP180;6932;51.438;5.470;2024-01-30T04:01:14;102098.00;;;15.00
15079;BMP180;6932;51.438;5.470;2024-01-30T04:03:41;102092.00;;;15.00
15079;BMP180;6932;51.438;5.470;2024-01-30T04:06:07;102101.00;;;15.00
15079;BMP180;6932;51.438;5.470;2024-01-30T04:08:33;102103.00;;;15.00
15079;BMP180;6932;51.438;5.470;2024-01-30T04:10:59;102099.00;;;15.00
15079;BMP180;6932;51.438;5.470;2024-01-30T04:13:24;102098.00;;;15.00
15079;BMP180;6932;51.438;5.470;2024-01-30T04:15:50;102098.00;;;15.10
15079;BMP180;6932;51.438;5.470;2024-01-30T04:18:16;102088.00;;;15.10
15079;BMP180;6932;51.438;5.470;2024-01-30T04:20:41;102096.00;;;15.10
15079;BMP180;6932;51.438;5.470;2024-01-30T04:23:07;102087.00;;;15.10
15079;BMP180;6932;51.438;5.470;2024-01-30T04:25:33;102075.00;;;15.10
15079;BMP180;6932;51.438;5.470;2024-01-30T04:27:59;102078.00;;;15.10
15079;BMP180;6932;51.438;5.470;2024-01-30T04:30:24;102084.00;;;15.10
15079;BMP180;6932;51.438;5.470;2024-01-30T04:32:50;102085.00;;;15.10
15079;BMP180;6932;51.438;5.470;2024-01-30T04:35:16;102071.00;;;15.10
15079;BMP180;6932;51.438;5.470;2024-01-30T04:37:41;102073.00;;;15.10
15079;BMP180;6932;51.438;5.470;2024-01-30T04:40:07;102073.00;;;15.20
15079;BMP180;6932;51.438;5.470;2024-01-30T04:42:35;102072.00;;;15.20
15079;BMP180;6932;51.438;5.470;2024-01-30T04:45:00;102068.00;;;15.20
15079;BMP180;6932;51.438;5.470;2024-01-30T04:47:26;102059.00;;;15.20
15079;BMP180;6932;51.438;5.470;2024-01-30T04:49:52;102059.00;;;15.20
15079;BMP180;6932;51.438;5.470;2024-01-30T04:52:17;102045.00;;;15.30
15079;BMP180;6932;51.438;5.470;2024-01-30T04:54:43;102046.00;;;15.30
15079;BMP180;6932;51.438;5.470;2024-01-30T04:57:09;102050.00;;;15.30
15079;BMP180;6932;51.438;5.470;2024-01-30T04:59:37;102050.00;;;15.30
15079;BMP180;6932;51.438;5.470;2024-01-30T05:02:03;102041.00;;;15.40
15079;BMP180;6932;51.438;5.470;2024-01-30T05:04:29;102037.00;;;15.40
15079;BMP180;6932;51.438;5.470;2024-01-30T05:06:55;102035.00;;;15.40
15079;BMP180;6932;51.438;5.470;2024-01-30T05:09:20;102048.00;;;15.40
15079;BMP180;6932;51.438;5.470;2024-01-30T05:11:47;102048.00;;;15.50
15079;BMP180;6932;51.438;5.470;2024-01-30T05:14:12;102049.00;;;15.50
15079;BMP180;6932;51.438;5.470;2024-01-30T05:16:40;102056.00;;;15.50
15079;BMP180;6932;51.438;5.470;2024-01-30T05:19:07;102057.00;;;15.50
15079;BMP180;6932;51.438;5.470;2024-01-30T05:21:32;102055.00;;;15.50
15079;BMP180;6932;51.438;5.470;2024-01-30T05:23:58;102053.00;;;15.60
15079;BMP180;6932;51.438;5.470;2024-01-30T05:26:24;102062.00;;;15.60
15079;BMP180;6932;51.438;5.470;2024-01-30T05:28:50;102061.00;;;15.60
15079;BMP180;6932;51.438;5.470;2024-01-30T05:31:15;102055.00;;;15.60
15079;BMP180;6932;51.438;5.470;2024-01-30T05:33:41;102058.00;;;15.60
15079;BMP180;6932;51.438;5.470;2024-01-30T05:36:07;102056.00;;;15.60
15079;BMP180;6932;51.438;5.470;2024-01-30T05:38:33;102057.00;;;15.60
15079;BMP180;6932;51.438;5.470;2024-01-30T05:40:59;102056.00;;;15.60
15079;BMP180;6932;51.438;5.470;2024-01-30T05:43:25;102051.00;;;15.60
15079;BMP180;6932;51.438;5.470;2024-01-30T05:45:51;102060.00;;;15.70
15079;BMP180;6932;51.438;5.470;2024-01-30T05:48:18;102050.00;;;15.70
15079;BMP180;6932;51.438;5.470;2024-01-30T05:50:43;102056.00;;;15.70
15079;BMP180;6932;51.438;5.470;2024-01-30T05:53:11;102066.00;;;15.70
15079;BMP180;6932;51.438;5.470;2024-01-30T05:55:36;102061.00;;;15.70
15079;BMP180;6932;51.438;5.470;2024-01-30T05:58:02;102054.00;;;15.70
15079;BMP180;6932;51.438;5.470;2024-01-30T06:00:28;102059.00;;;15.80
15079;BMP180;6932;51.438;5.470;2024-01-30T06:02:54;102061.00;;;15.80
15079;BMP180;6932;51.438;5.470;2024-01-30T06:05:19;102053.00;;;15.80
15079;BMP180;6932;51.438;5.470;2024-01-30T06:07:45;102053.00;;;15.80
15079;BMP180;6932;51.438;5.470;2024-01-30T06:10:11;102058.00;;;15.80
15079;BMP180;6932;51.438;5.470;2024-01-30T06:12:38;102063.00;;;15.80
15079;BMP180;6932;51.438;5.470;2024-01-30T06:15:04;102056.00;;;15.80
15079;BMP180;6932;51.438;5.470;2024-01-30T06:17:30;102058.00;;;15.80
15079;BMP180;6932;51.438;5.470;2024-01-30T06:19:56;102064.00;;;15.80
15079;BMP180;6932;51.438;5.470;2024-01-30T06:22:22;102059.00;;;15.80
15079;BMP180;6932;51.438;5.470;2024-01-30T06:24:47;102063.00;;;15.80
15079;BMP180;6932;51.438;5.470;2024-01-30T06:27:14;102068.00;;;15.90
15079;BMP180;6932;51.438;5.470;2024-01-30T06:29:42;102065.00;;;15.90
15079;BMP180;6932;51.438;5.470;2024-01-30T06:32:08;102063.00;;;15.90
15079;BMP180;6932;51.438;5.470;2024-01-30T06:34:34;102068.00;;;15.90
15079;BMP180;6932;51.438;5.470;2024-01-30T06:37:00;102081.00;;;15.90
15079;BMP180;6932;51.438;5.470;2024-01-30T06:39:26;102079.00;;;15.90
15079;BMP180;6932;51.438;5.470;2024-01-30T06:41:52;102075.00;;;15.90
15079;BMP180;6932;51.438;5.470;2024-01-30T06:44:18;102075.00;;;15.90
15079;BMP180;6932;51.438;5.470;2024-01-30T06:46:44;102077.00;;;15.90
15079;BMP180;6932;51.438;5.470;2024-01-30T06:49:10;102081.00;;;15.90
15079;BMP180;6932;51.438;5.470;2024-01-30T06:51:36;102087.00;;;15.90
15079;BMP180;6932;51.438;5.470;2024-01-30T06:54:02;102090.00;;;15.90
15079;BMP180;6932;51.438;5.470;2024-01-30T06:56:28;102088.00;;;15.90
15079;BMP180;6932;51.438;5.470;2024-01-30T06:58:54;102104.00;;;15.90
15079;BMP180;6932;51.438;5.470;2024-01-30T07:01:20;102101.00;;;15.90
15079;BMP180;6932;51.438;5.470;2024-01-30T07:03:46;102100.00;;;15.90
15079;BMP180;6932;51.438;5.470;2024-01-30T07:06:12;102108.00;;;15.90
15079;BMP180;6932;51.438;5.470;2024-01-30T07:08:38;102110.00;;;15.90
15079;BMP180;6932;51.438;5.470;2024-01-30T07:11:07;102119.00;;;15.90
15079;BMP180;6932;51.438;5.470;2024-01-30T07:13:34;102122.00;;;15.90
15079;BMP180;6932;51.438;5.470;2024-01-30T07:16:00;102136.00;;;15.90
15079;BMP180;6932;51.438;5.470;2024-01-30T07:18:26;102133.00;;;16.00
15079;BMP180;6932;51.438;5.470;2024-01-30T07:20:52;102129.00;;;15.90
15079;BMP180;6932;51.438;5.470;2024-01-30T07:23:18;102136.00;;;15.90
15079;BMP180;6932;51.438;5.470;2024-01-30T07:25:44;102134.00;;;15.90
15079;BMP180;6932;51.438;5.470;2024-01-30T07:28:14;102132.00;;;15.90
15079;BMP180;6932;51.438;5.470;2024-01-30T07:30:43;102135.00;;;15.90
15079;BMP180;6932;51.438;5.470;2024-01-30T07:33:09;102140.00;;;15.90
15079;BMP180;6932;51.438;5.470;2024-01-30T07:35:36;102138.00;;;15.90
15079;BMP180;6932;51.438;5.470;2024-01-30T07:38:02;102147.00;;;15.90
15079;BMP180;6932;51.438;5.470;2024-01-30T07:40:27;102149.00;;;15.90
15079;BMP180;6932;51.438;5.470;2024-01-30T07:42:54;102143.00;;;15.90
15079;BMP180;6932;51.438;5.470;2024-01-30T07:45:20;102151.00;;;15.90
15079;BMP180;6932;51.438;5.470;2024-01-30T07:47:49;102148.00;;;15.90
15079;BMP180;6932;51.438;5.470;2024-01-30T07:50:15;102156.00;;;15.90
15079;BMP180;6932;51.438;5.470;2024-01-30T07:52:41;102154.00;;;15.90
15079;BMP180;6932;51.438;5.470;2024-01-30T07:55:07;102147.00;;;15.80
15079;BMP180;6932;51.438;5.470;2024-01-30T07:57:34;102148.00;;;15.80
15079;BMP180;6932;51.438;5.470;2024-01-30T08:00:00;102156.00;;;15.80
15079;BMP180;6932;51.438;5.470;2024-01-30T08:02:26;102165.00;;;15.80
15079;BMP180;6932;51.438;5.470;2024-01-30T08:04:52;102169.00;;;15.80
15079;BMP180;6932;51.438;5.470;2024-01-30T08:07:18;102169.00;;;15.80
15079;BMP180;6932;51.438;5.470;2024-01-30T08:09:44;102167.00;;;15.80
15079;BMP180;6932;51.438;5.470;2024-01-30T08:12:09;102169.00;;;15.80
15079;BMP180;6932;51.438;5.470;2024-01-30T08:14:35;102174.00;;;15.80
15079;BMP180;6932;51.438;5.470;2024-01-30T08:17:01;102174.00;;;15.80
15079;BMP180;6932;51.438;5.470;2024-01-30T08:19:27;102173.00;;;15.80
15079;BMP180;6932;51.438;5.470;2024-01-30T08:21:52;102170.00;;;15.80
15079;BMP180;6932;51.438;5.470;2024-01-30T08:24:18;102163.00;;;15.80
15079;BMP180;6932;51.438;5.470;2024-01-30T08:26:44;102179.00;;;15.80
15079;BMP180;6932;51.438;5.470;2024-01-30T08:29:09;102169.00;;;15.80
15079;BMP180;6932;51.438;5.470;2024-01-30T08:31:35;102185.00;;;15.90
15079;BMP180;6932;51.438;5.470;2024-01-30T08:34:01;102168.00;;;15.90
15079;BMP180;6932;51.438;5.470;2024-01-30T08:36:27;102179.00;;;15.90
15079;BMP180;6932;51.438;5.470;2024-01-30T08:38:53;102179.00;;;15.90
15079;BMP180;6932;51.438;5.470;2024-01-30T08:41:20;102177.00;;;15.90
15079;BMP180;6932;51.438;5.470;2024-01-30T08:43:45;102178.00;;;16.00
15079;BMP180;6932;51.438;5.470;2024-01-30T08:46:12;102178.00;;;16.00
15079;BMP180;6932;51.438;5.470;2024-01-30T08:48:38;102172.00;;;16.00
15079;BMP180;6932;51.438;5.470;2024-01-30T08:51:04;102180.00;;;16.00
15079;BMP180;6932;51.438;5.470;2024-01-30T08:53:34;102175.00;;;16.10
15079;BMP180;6932;51.438;5.470;2024-01-30T08:56:01;102173.00;;;16.10
15079;BMP180;6932;51.438;5.470;2024-01-30T08:58:27;102181.00;;;16.10
15079;BMP180;6932;51.438;5.470;2024-01-30T09:00:52;102184.00;;;16.10
15079;BMP180;6932;51.438;5.470;2024-01-30T09:03:18;102179.00;;;16.20
15079;BMP180;6932;51.438;5.470;2024-01-30T09:05:44;102176.00;;;16.20
15079;BMP180;6932;51.438;5.470;2024-01-30T09:08:10;102181.00;;;16.20
15079;BMP180;6932;51.438;5.470;2024-01-30T09:10:36;102174.00;;;16.20
15079;BMP180;6932;51.438;5.470;2024-01-30T09:13:02;102187.00;;;16.20
15079;BMP180;6932;51.438;5.470;2024-01-30T09:15:28;102187.00;;;16.30
15079;BMP180;6932;51.438;5.470;2024-01-30T09:17:54;102186.00;;;16.30
15079;BMP180;6932;51.438;5.470;2024-01-30T09:20:20;102188.00;;;16.30
15079;BMP180;6932;51.438;5.470;2024-01-30T09:22:47;102192.00;;;16.30
15079;BMP180;6932;51.438;5.470;2024-01-30T09:25:14;102193.00;;;16.40
15079;BMP180;6932;51.438;5.470;2024-01-30T09:27:40;102187.00;;;16.40
15079;BMP180;6932;51.438;5.470;2024-01-30T09:30:07;102197.00;;;16.40
15079;BMP180;6932;51.438;5.470;2024-01-30T09:32:33;102183.00;;;16.40
15079;BMP180;6932;51.438;5.470;2024-01-30T09:34:58;102201.00;;;16.50
15079;BMP180;6932;51.438;5.470;2024-01-30T09:37:24;102197.00;;;16.50
15079;BMP180;6932;51.438;5.470;2024-01-30T09:39:50;102208.00;;;16.50
15079;BMP180;6932;51.438;5.470;2024-01-30T09:42:34;102202.00;;;16.50
15079;BMP180;6932;51.438;5.470;2024-01-30T09:45:02;102208.00;;;16.50
15079;BMP180;6932;51.438;5.470;2024-01-30T09:47:41;102217.00;;;16.50
15079;BMP180;6932;51.438;5.470;2024-01-30T09:50:13;102220.00;;;16.60
15079;BMP180;6932;51.438;5.470;2024-01-30T09:52:40;102219.00;;;16.60
15079;BMP180;6932;51.438;5.470;2024-01-30T09:55:07;102222.00;;;16.60
15079;BMP180;6932;51.438;5.470;2024-01-30T09:57:34;102225.00;;;16.70
15079;BMP180;6932;51.438;5.470;2024-01-30T10:00:01;102229.00;;;16.70
15079;BMP180;6932;51.438;5.470;2024-01-30T10:02:27;102222.00;;;16.70
15079;BMP180;6932;51.438;5.470;2024-01-30T10:04:53;102227.00;;;16.70
15079;BMP180;6932;51.438;5.470;2024-01-30T10:07:19;102221.00;;;16.70
15079;BMP180;6932;51.438;5.470;2024-01-30T10:09:46;102214.00;;;16.80
15079;BMP180;6932;51.438;5.470;2024-01-30T10:12:12;102219.00;;;16.80
15079;BMP180;6932;51.438;5.470;2024-01-30T10:14:39;102221.00;;;16.80
15079;BMP180;6932;51.438;5.470;2024-01-30T10:17:08;102226.00;;;16.80
15079;BMP180;6932;51.438;5.470;2024-01-30T10:19:34;102055.00;;;16.80
15079;BMP180;6932;51.438;5.470;2024-01-30T10:22:04;102052.00;;;16.50
15079;BMP180;6932;51.438;5.470;2024-01-30T10:24:30;102054.00;;;16.30
15079;BMP180;6932;51.438;5.470;2024-01-30T10:26:56;102067.00;;;16.20
15079;BMP180;6932;51.438;5.470;2024-01-30T10:29:22;102061.00;;;16.10
15079;BMP180;6932;51.438;5.470;2024-01-30T10:32:05;102062.00;;;16.00
15079;BMP180;6932;51.438;5.470;2024-01-30T10:34:32;102059.00;;;16.00
15079;BMP180;6932;51.438;5.470;2024-01-30T10:37:10;102069.00;;;15.90
15079;BMP180;6932;51.438;5.470;2024-01-30T10:39:44;102064.00;;;15.90
15079;BMP180;6932;51.438;5.470;2024-01-30T10:42:15;102070.00;;;15.80
15079;BMP180;6932;51.438;5.470;2024-01-30T10:47:30;102251.00;;;16.20
15079;BMP180;6932;51.438;5.470;2024-01-30T10:49:56;102251.00;;;16.30
15079;BMP180;6932;51.438;5.470;2024-01-30T10:52:26;102250.00;;;16.50
15079;BMP180;6932;51.438;5.470;2024-01-30T10:54:55;102252.00;;;16.60
15079;BMP180;6932;51.438;5.470;2024-01-30T10:57:23;102239.00;;;16.70
15079;BMP180;6932;51.438;5.470;2024-01-30T10:59:53;102246.00;;;16.70
15079;BMP180;6932;51.438;5.470;2024-01-30T11:02:21;102259.00;;;16.80
15079;BMP180;6932;51.438;5.470;2024-01-30T11:04:49;102254.00;;;16.90
15079;BMP180;6932;51.438;5.470;2024-01-30T11:07:24;102249.00;;;16.90
15079;BMP180;6932;51.438;5.470;2024-01-30T11:12:30;102241.00;;;17.00
15079;BMP180;6932;51.438;5.470;2024-01-30T11:20:30;102252.00;;;17.00
15079;BMP180;6932;51.438;5.470;2024-01-30T11:23:02;102252.00;;;17.10
15079;BMP180;6932;51.438;5.470;2024-01-30T11:25:32;102255.00;;;17.10
15079;BMP180;6932;51.438;5.470;2024-01-30T11:27:58;102245.00;;;17.10
15079;BMP180;6932;51.438;5.470;2024-01-30T11:30:32;102247.00;;;17.10
15079;BMP180;6932;51.438;5.470;2024-01-30T11:33:11;102242.00;;;17.10
15079;BMP180;6932;51.438;5.470;2024-01-30T11:35:40;102247.00;;;17.20
15079;BMP180;6932;51.438;5.470;2024-01-30T11:38:09;102241.00;;;17.20
15079;BMP180;6932;51.438;5.470;2024-01-30T11:40:37;102240.00;;;17.30
15079;BMP180;6932;51.438;5.470;2024-01-30T11:43:05;102233.00;;;17.30
15079;BMP180;6932;51.438;5.470;2024-01-30T11:45:32;102230.00;;;17.30
15079;BMP180;6932;51.438;5.470;2024-01-30T11:47:59;102238.00;;;17.30
15079;BMP180;6932;51.438;5.470;2024-01-30T11:50:27;102230.00;;;17.30
15079;BMP180;6932;51.438;5.470;2024-01-30T11:52:54;102233.00;;;17.30
15079;BMP180;6932;51.438;5.470;2024-01-30T11:55:20;102230.00;;;17.40
15079;BMP180;6932;51.438;5.470;2024-01-30T11:57:46;102233.00;;;17.40
15079;BMP180;6932;51.438;5.470;2024-01-30T12:00:19;102235.00;;;17.30
15079;BMP180;6932;51.438;5.470;2024-01-30T12:02:50;102241.00;;;17.40
15079;BMP180;6932;51.438;5.470;2024-01-30T12:05:16;102230.00;;;17.40
15079;BMP180;6932;51.438;5.470;2024-01-30T12:07:45;102240.00;;;17.40
15079;BMP180;6932;51.438;5.470;2024-01-30T12:10:13;102245.00;;;17.40
15079;BMP180;6932;51.438;5.470;2024-01-30T12:12:42;102242.00;;;17.40
15079;BMP180;6932;51.438;5.470;2024-01-30T12:15:10;102249.00;;;17.40
15079;BMP180;6932;51.438;5.470;2024-01-30T12:17:36;102240.00;;;17.40
15079;BMP180;6932;51.438;5.470;2024-01-30T12:20:18;102240.00;;;17.30
15079;BMP180;6932;51.438;5.470;2024-01-30T12:22:48;102252.00;;;17.40
15079;BMP180;6932;51.438;5.470;2024-01-30T12:25:16;102257.00;;;17.40
15079;BMP180;6932;51.438;5.470;2024-01-30T12:27:47;102259.00;;;17.30
15079;BMP180;6932;51.438;5.470;2024-01-30T12:30:18;102276.00;;;17.30
15079;BMP180;6932;51.438;5.470;2024-01-30T12:32:47;102274.00;;;17.30
15079;BMP180;6932;51.438;5.470;2024-01-30T12:35:15;102271.00;;;17.20
15079;BMP180;6932;51.438;5.470;2024-01-30T12:37:43;102272.00;;;17.20
15079;BMP180;6932;51.438;5.470;2024-01-30T12:40:19;102283.00;;;17.20
15079;BMP180;6932;51.438;5.470;2024-01-30T12:42:47;102289.00;;;17.20
15079;BMP180;6932;51.438;5.470;2024-01-30T12:45:15;102292.00;;;17.30
15079;BMP180;6932;51.438;5.470;2024-01-30T12:47:42;102285.00;;;17.30
15079;BMP180;6932;51.438;5.470;2024-01-30T12:50:07;102292.00;;;17.40
15079;BMP180;6932;51.438;5.470;2024-01-30T12:52:35;102287.00;;;17.40
15079;BMP180;6932;51.438;5.470;2024-01-30T12:55:01;102287.00;;;17.50
15079;BMP180;6932;51.438;5.470;2024-01-30T12:57:29;102278.00;;;17.50
15079;BMP180;6932;51.438;5.470;2024-01-30T12:59:55;102298.00;;;17.50
15079;BMP180;6932;51.438;5.470;2024-01-30T13:02:20;102298.00;;;17.50
15079;BMP180;6932;51.438;5.470;2024-01-30T13:04:48;102285.00;;;17.50
15079;BMP180;6932;51.438;5.470;2024-01-30T13:07:13;102294.00;;;17.50
15079;BMP180;6932;51.438;5.470;2024-01-30T13:09:39;102295.00;;;17.50
15079;BMP180;6932;51.438;5.470;2024-01-30T13:12:05;102294.00;;;17.50
15079;BMP180;6932;51.438;5.470;2024-01-30T13:14:32;102299.00;;;17.60
15079;BMP180;6932;51.438;5.470;2024-01-30T13:16:58;102294.00;;;17.50
15079;BMP180;6932;51.438;5.470;2024-01-30T13:19:24;102304.00;;;17.50
15079;BMP180;6932;51.438;5.470;2024-01-30T13:21:50;102312.00;;;17.50
15079;BMP180;6932;51.438;5.470;2024-01-30T13:24:15;102310.00;;;17.50
15079;BMP180;6932;51.438;5.470;2024-01-30T13:26:43;102304.00;;;17.50
15079;BMP180;6932;51.438;5.470;2024-01-30T13:29:09;102292.00;;;17.50
15079;BMP180;6932;51.438;5.470;2024-01-30T13:31:35;102313.00;;;17.50
15079;BMP180;6932;51.438;5.470;2024-01-30T13:34:01;102314.00;;;17.50
15079;BMP180;6932;51.438;5.470;2024-01-30T13:36:26;102306.00;;;17.50
15079;BMP180;6932;51.438;5.470;2024-01-30T13:38:52;102324.00;;;17.50
15079;BMP180;6932;51.438;5.470;2024-01-30T13:41:18;102316.00;;;17.50
15079;BMP180;6932;51.438;5.470;2024-01-30T13:43:44;102311.00;;;17.50
15079;BMP180;6932;51.438;5.470;2024-01-30T13:46:10;102316.00;;;17.50
15079;BMP180;6932;51.438;5.470;2024-01-30T13:48:36;102318.00;;;17.40
15079;BMP180;6932;51.438;5.470;2024-01-30T13:51:02;102317.00;;;17.40
15079;BMP180;6932;51.438;5.470;2024-01-30T13:53:27;102322.00;;;17.40
15079;BMP180;6932;51.438;5.470;2024-01-30T13:55:53;102323.00;;;17.40
15079;BMP180;6932;51.438;5.470;2024-01-30T13:58:19;102323.00;;;17.40
15079;BMP180;6932;51.438;5.470;2024-01-30T14:00:45;102323.00;;;17.30
15079;BMP180;6932;51.438;5.470;2024-01-30T14:03:11;102324.00;;;17.30
15079;BMP180;6932;51.438;5.470;2024-01-30T14:05:37;102326.00;;;17.30
15079;BMP180;6932;51.438;5.470;2024-01-30T14:08:03;102333.00;;;17.30
15079;BMP180;6932;51.438;5.470;2024-01-30T14:10:29;102332.00;;;17.30
15079;BMP180;6932;51.438;5.470;2024-01-30T14:12:55;102335.00;;;17.20
15079;BMP180;6932;51.438;5.470;2024-01-30T14:15:21;102342.00;;;17.20
15079;BMP180;6932;51.438;5.470;2024-01-30T14:17:47;102344.00;;;17.20